Columbus Municipal Airport
KOLU : now visible

Airfield :











YOU CAN JOIN US ON...

 
LOGIN :

Register | Disclaimer

   EN    FR    IT 

 









Legend :    VFR   Marginal VFR   IFR   Intensive IFR   Very Intensive IFR
Visi :
Ceiling :
>= 8 km
>= 3000ft
5 to 8 km
1000 to 3000 ft
1500m to 5 km
500 to 1000 ft
800 to 1500m
200 to 500 ft
< 800m
< 200 ft
Symbols :   Thunderstorms  Fog  Heavy snow  Heavy precipitations  Wind > 20 kt







- Airport Elevation : 1447 ft


KOLU - Columbus Municipal

CURRENT METAR :
  • 160256Z AUTO 29005KT 10SM CLR 19/15 A2983 RMK AO2 SLP096 T01940150 53015

EXPIRED METARs :
  • 160213Z AUTO 30005KT 10SM FEW002 22/15 A2981 RMK AO2
  • 160156Z AUTO 31007KT 10SM CLR 23/14 A2981 RMK AO2 SLP086 T02330144
  • 160056Z AUTO 30011G17KT 10SM SCT070 27/14 A2979 RMK AO2 SLP079 T02720144

TAF N/A
KZMP FIR / North America



MET'MAP, your aeronautical weather chart ! - Copyright ORBIFLY December 2007 - Disclaimer

ORBIFLY MET'MAP TEAM :

Programming & Development : Alexandra Zaïnal
Concept & Development : Baudouin d'Aumeries
Co-Development & Prog : Marc-Olivier Méhu
Technical & hardware support : Manuel Goepfert

Contact : metmap@orbifly.com




SOURCES & CREDITS :

   NOAA       Earth
Advisory